sensor_id;sensor_type;location;lat;lon;timestamp;temperature;humidity
25108;DHT22;13090;53.422;7.670;2022-08-11T00:02:03;20.40;59.90
25108;DHT22;13090;53.422;7.670;2022-08-11T00:07:16;20.20;60.10
25108;DHT22;13090;53.422;7.670;2022-08-11T00:12:21;20.20;60.60
25108;DHT22;13090;53.422;7.670;2022-08-11T00:17:28;20.10;61.20
25108;DHT22;13090;53.422;7.670;2022-08-11T00:22:31;20.10;61.90
25108;DHT22;13090;53.422;7.670;2022-08-11T00:27:37;20.00;61.40
25108;DHT22;13090;53.422;7.670;2022-08-11T00:32:42;20.00;62.00
25108;DHT22;13090;53.422;7.670;2022-08-11T00:37:48;19.90;62.90
25108;DHT22;13090;53.422;7.670;2022-08-11T00:43:12;19.90;62.40
25108;DHT22;13090;53.422;7.670;2022-08-11T00:48:27;19.90;63.50
25108;DHT22;13090;53.422;7.670;2022-08-11T00:53:38;19.80;62.50
25108;DHT22;13090;53.422;7.670;2022-08-11T00:59:14;19.80;62.60
25108;DHT22;13090;53.422;7.670;2022-08-11T01:16:10;19.60;62.60
25108;DHT22;13090;53.422;7.670;2022-08-11T01:33:02;19.40;63.40
25108;DHT22;13090;53.422;7.670;2022-08-11T01:44:14;19.30;63.40
25108;DHT22;13090;53.422;7.670;2022-08-11T01:49:30;19.20;63.50
25108;DHT22;13090;53.422;7.670;2022-08-11T01:55:01;19.20;62.80
25108;DHT22;13090;53.422;7.670;2022-08-11T02:00:15;19.10;62.90
25108;DHT22;13090;53.422;7.670;2022-08-11T02:05:28;19.10;63.00
25108;DHT22;13090;53.422;7.670;2022-08-11T02:10:44;19.10;63.20
25108;DHT22;13090;53.422;7.670;2022-08-11T02:16:06;19.00;63.20
25108;DHT22;13090;53.422;7.670;2022-08-11T02:21:14;19.00;63.40
25108;DHT22;13090;53.422;7.670;2022-08-11T02:26:21;18.90;62.80
25108;DHT22;13090;53.422;7.670;2022-08-11T02:31:40;18.90;62.80
25108;DHT22;13090;53.422;7.670;2022-08-11T02:37:14;18.80;62.90
25108;DHT22;13090;53.422;7.670;2022-08-11T02:42:30;18.70;63.30
25108;DHT22;13090;53.422;7.670;2022-08-11T02:47:45;18.70;63.60
25108;DHT22;13090;53.422;7.670;2022-08-11T02:52:54;18.60;63.80
25108;DHT22;13090;53.422;7.670;2022-08-11T02:58:08;18.60;63.60
25108;DHT22;13090;53.422;7.670;2022-08-11T03:03:22;18.50;63.80
25108;DHT22;13090;53.422;7.670;2022-08-11T03:08:45;18.40;64.00
25108;DHT22;13090;53.422;7.670;2022-08-11T03:14:02;18.40;64.30
25108;DHT22;13090;53.422;7.670;2022-08-11T03:19:18;18.30;64.20
25108;DHT22;13090;53.422;7.670;2022-08-11T03:24:30;18.20;64.10
25108;DHT22;13090;53.422;7.670;2022-08-11T03:29:38;18.20;64.00
25108;DHT22;13090;53.422;7.670;2022-08-11T03:34:45;18.20;63.80
25108;DHT22;13090;53.422;7.670;2022-08-11T03:39:58;18.10;64.00
25108;DHT22;13090;53.422;7.670;2022-08-11T03:45:18;18.00;66.30
25108;DHT22;13090;53.422;7.670;2022-08-11T03:56:20;17.80;68.10
25108;DHT22;13090;53.422;7.670;2022-08-11T04:01:43;17.70;68.00
25108;DHT22;13090;53.422;7.670;2022-08-11T04:18:49;17.80;69.20
25108;DHT22;13090;53.422;7.670;2022-08-11T04:24:03;17.90;68.90
25108;DHT22;13090;53.422;7.670;2022-08-11T04:29:45;18.00;66.90
25108;DHT22;13090;53.422;7.670;2022-08-11T04:35:18;18.00;67.00
25108;DHT22;13090;53.422;7.670;2022-08-11T04:40:48;18.10;67.20
25108;DHT22;13090;53.422;7.670;2022-08-11T04:46:11;18.30;67.70
25108;DHT22;13090;53.422;7.670;2022-08-11T04:51:42;18.50;67.60
25108;DHT22;13090;53.422;7.670;2022-08-11T04:56:47;18.90;68.10
25108;DHT22;13090;53.422;7.670;2022-08-11T05:02:22;19.40;67.70
25108;DHT22;13090;53.422;7.670;2022-08-11T05:08:15;20.20;67.70
25108;DHT22;13090;53.422;7.670;2022-08-11T05:13:28;21.00;66.80
25108;DHT22;13090;53.422;7.670;2022-08-11T05:18:35;22.00;66.30
25108;DHT22;13090;53.422;7.670;2022-08-11T05:23:46;22.70;65.20
25108;DHT22;13090;53.422;7.670;2022-08-11T05:28:55;23.40;64.10
25108;DHT22;13090;53.422;7.670;2022-08-11T05:34:24;24.00;63.10
25108;DHT22;13090;53.422;7.670;2022-08-11T05:39:29;24.70;61.90
25108;DHT22;13090;53.422;7.670;2022-08-11T05:44:38;25.30;61.30
25108;DHT22;13090;53.422;7.670;2022-08-11T05:49:49;25.90;60.80
25108;DHT22;13090;53.422;7.670;2022-08-11T05:54:51;26.40;58.40
25108;DHT22;13090;53.422;7.670;2022-08-11T05:59:59;26.70;58.60
25108;DHT22;13090;53.422;7.670;2022-08-11T06:05:03;27.20;58.50
25108;DHT22;13090;53.422;7.670;2022-08-11T06:10:06;27.80;58.40
25108;DHT22;13090;53.422;7.670;2022-08-11T06:15:12;28.20;57.10
25108;DHT22;13090;53.422;7.670;2022-08-11T06:20:17;28.60;57.10
25108;DHT22;13090;53.422;7.670;2022-08-11T06:25:20;29.10;55.80
25108;DHT22;13090;53.422;7.670;2022-08-11T06:30:33;29.60;55.20
25108;DHT22;13090;53.422;7.670;2022-08-11T06:35:45;29.90;53.40
25108;DHT22;13090;53.422;7.670;2022-08-11T06:40:52;30.20;51.60
25108;DHT22;13090;53.422;7.670;2022-08-11T06:45:59;30.40;51.60
25108;DHT22;13090;53.422;7.670;2022-08-11T06:51:07;30.60;50.00
25108;DHT22;13090;53.422;7.670;2022-08-11T06:56:12;30.70;47.80
25108;DHT22;13090;53.422;7.670;2022-08-11T07:01:21;30.70;48.40
25108;DHT22;13090;53.422;7.670;2022-08-11T07:06:35;30.80;48.40
25108;DHT22;13090;53.422;7.670;2022-08-11T07:17:48;31.20;46.80
25108;DHT22;13090;53.422;7.670;2022-08-11T07:22:56;31.40;47.30
25108;DHT22;13090;53.422;7.670;2022-08-11T07:28:01;31.80;46.80
25108;DHT22;13090;53.422;7.670;2022-08-11T07:33:05;32.20;46.60
25108;DHT22;13090;53.422;7.670;2022-08-11T07:38:19;32.60;45.10
25108;DHT22;13090;53.422;7.670;2022-08-11T07:43:27;32.80;44.30
25108;DHT22;13090;53.422;7.670;2022-08-11T07:48:32;33.00;43.80
25108;DHT22;13090;53.422;7.670;2022-08-11T07:53:38;33.30;43.60
25108;DHT22;13090;53.422;7.670;2022-08-11T07:58:59;33.50;42.70
25108;DHT22;13090;53.422;7.670;2022-08-11T08:04:11;33.70;42.80
25108;DHT22;13090;53.422;7.670;2022-08-11T08:09:18;33.90;42.20
25108;DHT22;13090;53.422;7.670;2022-08-11T08:14:22;34.10;42.00
25108;DHT22;13090;53.422;7.670;2022-08-11T08:19:25;34.40;41.90
25108;DHT22;13090;53.422;7.670;2022-08-11T08:24:29;34.60;41.20
25108;DHT22;13090;53.422;7.670;2022-08-11T08:29:35;34.80;39.10
25108;DHT22;13090;53.422;7.670;2022-08-11T08:34:38;35.00;40.50
25108;DHT22;13090;53.422;7.670;2022-08-11T08:39:44;35.30;39.60
25108;DHT22;13090;53.422;7.670;2022-08-11T08:44:49;35.30;37.70
25108;DHT22;13090;53.422;7.670;2022-08-11T08:49:59;35.30;37.10
25108;DHT22;13090;53.422;7.670;2022-08-11T08:55:05;35.30;37.10
25108;DHT22;13090;53.422;7.670;2022-08-11T09:00:09;35.30;37.00
25108;DHT22;13090;53.422;7.670;2022-08-11T09:05:17;35.30;36.60
25108;DHT22;13090;53.422;7.670;2022-08-11T09:10:22;35.30;36.00
25108;DHT22;13090;53.422;7.670;2022-08-11T09:15:25;35.20;35.70
25108;DHT22;13090;53.422;7.670;2022-08-11T09:20:29;35.30;35.30
25108;DHT22;13090;53.422;7.670;2022-08-11T09:25:34;35.40;36.30
25108;DHT22;13090;53.422;7.670;2022-08-11T09:30:40;35.60;34.80
25108;DHT22;13090;53.422;7.670;2022-08-11T09:35:43;35.80;34.60
25108;DHT22;13090;53.422;7.670;2022-08-11T09:40:50;36.00;34.40
25108;DHT22;13090;53.422;7.670;2022-08-11T09:45:58;36.20;33.40
25108;DHT22;13090;53.422;7.670;2022-08-11T09:51:01;36.20;33.50
25108;DHT22;13090;53.422;7.670;2022-08-11T09:56:09;36.10;30.70
25108;DHT22;13090;53.422;7.670;2022-08-11T10:01:13;35.80;30.70
25108;DHT22;13090;53.422;7.670;2022-08-11T10:06:17;35.60;31.20
25108;DHT22;13090;53.422;7.670;2022-08-11T10:11:22;35.50;32.30
25108;DHT22;13090;53.422;7.670;2022-08-11T10:16:27;35.80;32.40
25108;DHT22;13090;53.422;7.670;2022-08-11T10:21:37;36.20;31.40
25108;DHT22;13090;53.422;7.670;2022-08-11T10:26:43;36.30;31.50
25108;DHT22;13090;53.422;7.670;2022-08-11T10:31:47;36.40;30.50
25108;DHT22;13090;53.422;7.670;2022-08-11T10:37:05;36.30;31.30
25108;DHT22;13090;53.422;7.670;2022-08-11T10:42:17;36.40;31.80
25108;DHT22;13090;53.422;7.670;2022-08-11T10:47:41;36.50;31.00
25108;DHT22;13090;53.422;7.670;2022-08-11T10:52:50;36.40;30.90
25108;DHT22;13090;53.422;7.670;2022-08-11T10:57:56;36.50;30.30
25108;DHT22;13090;53.422;7.670;2022-08-11T11:03:06;36.60;30.80
25108;DHT22;13090;53.422;7.670;2022-08-11T11:08:28;37.00;31.00
25108;DHT22;13090;53.422;7.670;2022-08-11T11:13:35;37.30;30.50
25108;DHT22;13090;53.422;7.670;2022-08-11T11:18:54;37.70;31.30
25108;DHT22;13090;53.422;7.670;2022-08-11T11:24:11;38.50;31.70
25108;DHT22;13090;53.422;7.670;2022-08-11T11:29:48;39.40;30.00
25108;DHT22;13090;53.422;7.670;2022-08-11T11:35:16;39.90;28.40
25108;DHT22;13090;53.422;7.670;2022-08-11T11:40:23;39.70;27.40
25108;DHT22;13090;53.422;7.670;2022-08-11T11:45:35;39.30;28.90
25108;DHT22;13090;53.422;7.670;2022-08-11T11:50:38;39.10;27.30
25108;DHT22;13090;53.422;7.670;2022-08-11T11:55:41;38.50;28.30
25108;DHT22;13090;53.422;7.670;2022-08-11T12:00:46;38.10;28.60
25108;DHT22;13090;53.422;7.670;2022-08-11T12:05:50;37.90;29.00
25108;DHT22;13090;53.422;7.670;2022-08-11T12:10:54;37.90;30.60
25108;DHT22;13090;53.422;7.670;2022-08-11T12:16:00;37.90;28.60
25108;DHT22;13090;53.422;7.670;2022-08-11T12:21:23;37.70;29.30
25108;DHT22;13090;53.422;7.670;2022-08-11T12:26:28;37.80;29.50
25108;DHT22;13090;53.422;7.670;2022-08-11T12:31:33;38.10;28.90
25108;DHT22;13090;53.422;7.670;2022-08-11T12:36:36;37.90;28.80
25108;DHT22;13090;53.422;7.670;2022-08-11T12:41:41;37.70;29.20
25108;DHT22;13090;53.422;7.670;2022-08-11T12:46:47;37.70;28.70
25108;DHT22;13090;53.422;7.670;2022-08-11T12:51:53;37.20;27.80
25108;DHT22;13090;53.422;7.670;2022-08-11T12:57:17;36.30;29.10
25108;DHT22;13090;53.422;7.670;2022-08-11T13:02:43;35.70;29.60
25108;DHT22;13090;53.422;7.670;2022-08-11T13:07:48;35.70;29.90
25108;DHT22;13090;53.422;7.670;2022-08-11T13:12:52;36.00;30.20
25108;DHT22;13090;53.422;7.670;2022-08-11T13:17:58;36.30;29.80
25108;DHT22;13090;53.422;7.670;2022-08-11T13:23:03;36.50;28.80
25108;DHT22;13090;53.422;7.670;2022-08-11T13:28:07;36.30;28.40
25108;DHT22;13090;53.422;7.670;2022-08-11T13:33:11;36.30;28.60
25108;DHT22;13090;53.422;7.670;2022-08-11T13:38:16;36.30;28.20
25108;DHT22;13090;53.422;7.670;2022-08-11T13:43:22;36.10;27.60
25108;DHT22;13090;53.422;7.670;2022-08-11T13:48:27;35.80;28.30
25108;DHT22;13090;53.422;7.670;2022-08-11T13:53:30;35.30;28.20
25108;DHT22;13090;53.422;7.670;2022-08-11T13:58:34;34.80;29.00
25108;DHT22;13090;53.422;7.670;2022-08-11T14:03:46;34.50;29.10
25108;DHT22;13090;53.422;7.670;2022-08-11T14:09:09;34.40;29.50
25108;DHT22;13090;53.422;7.670;2022-08-11T14:14:20;34.30;29.80
25108;DHT22;13090;53.422;7.670;2022-08-11T14:19:26;34.20;29.90
25108;DHT22;13090;53.422;7.670;2022-08-11T14:24:31;34.20;30.10
25108;DHT22;13090;53.422;7.670;2022-08-11T14:29:34;34.40;30.70
25108;DHT22;13090;53.422;7.670;2022-08-11T14:34:51;34.20;31.00
25108;DHT22;13090;53.422;7.670;2022-08-11T14:39:56;33.90;31.60
25108;DHT22;13090;53.422;7.670;2022-08-11T14:45:07;33.70;32.10
25108;DHT22;13090;53.422;7.670;2022-08-11T14:50:14;33.50;32.20
25108;DHT22;13090;53.422;7.670;2022-08-11T14:55:18;33.60;32.50
25108;DHT22;13090;53.422;7.670;2022-08-11T15:00:21;33.50;32.30
25108;DHT22;13090;53.422;7.670;2022-08-11T15:05:26;33.10;32.40
25108;DHT22;13090;53.422;7.670;2022-08-11T15:10:29;32.80;32.80
25108;DHT22;13090;53.422;7.670;2022-08-11T15:15:32;32.80;33.10
25108;DHT22;13090;53.422;7.670;2022-08-11T15:20:37;32.90;33.50
25108;DHT22;13090;53.422;7.670;2022-08-11T15:25:43;32.90;33.40
25108;DHT22;13090;53.422;7.670;2022-08-11T15:30:52;32.70;33.50
25108;DHT22;13090;53.422;7.670;2022-08-11T15:35:57;32.50;33.90
25108;DHT22;13090;53.422;7.670;2022-08-11T15:41:04;32.40;34.40
25108;DHT22;13090;53.422;7.670;2022-08-11T15:46:13;32.30;34.80
25108;DHT22;13090;53.422;7.670;2022-08-11T15:51:27;32.20;35.10
25108;DHT22;13090;53.422;7.670;2022-08-11T15:56:32;32.10;35.10
25108;DHT22;13090;53.422;7.670;2022-08-11T16:01:41;32.20;34.70
25108;DHT22;13090;53.422;7.670;2022-08-11T16:06:53;32.30;34.70
25108;DHT22;13090;53.422;7.670;2022-08-11T16:12:05;32.10;34.40
25108;DHT22;13090;53.422;7.670;2022-08-11T16:17:10;31.90;34.90
25108;DHT22;13090;53.422;7.670;2022-08-11T16:22:20;31.70;35.00
25108;DHT22;13090;53.422;7.670;2022-08-11T16:27:24;31.60;35.10
25108;DHT22;13090;53.422;7.670;2022-08-11T16:32:28;31.60;35.50
25108;DHT22;13090;53.422;7.670;2022-08-11T16:37:35;31.50;35.60
25108;DHT22;13090;53.422;7.670;2022-08-11T16:42:41;31.40;35.90
25108;DHT22;13090;53.422;7.670;2022-08-11T16:48:07;31.50;36.00
25108;DHT22;13090;53.422;7.670;2022-08-11T16:53:31;31.60;35.80
25108;DHT22;13090;53.422;7.670;2022-08-11T16:58:55;31.70;35.80
25108;DHT22;13090;53.422;7.670;2022-08-11T17:04:04;31.60;36.10
25108;DHT22;13090;53.422;7.670;2022-08-11T17:09:10;31.30;36.30
25108;DHT22;13090;53.422;7.670;2022-08-11T17:14:18;31.10;36.90
25108;DHT22;13090;53.422;7.670;2022-08-11T17:19:43;30.90;37.30
25108;DHT22;13090;53.422;7.670;2022-08-11T17:25:09;30.60;38.00
25108;DHT22;13090;53.422;7.670;2022-08-11T17:30:13;30.40;38.10
25108;DHT22;13090;53.422;7.670;2022-08-11T17:35:18;30.20;38.10
25108;DHT22;13090;53.422;7.670;2022-08-11T17:46:24;30.00;38.30
25108;DHT22;13090;53.422;7.670;2022-08-11T17:51:28;30.10;38.40
25108;DHT22;13090;53.422;7.670;2022-08-11T17:56:32;30.20;38.30
25108;DHT22;13090;53.422;7.670;2022-08-11T18:01:40;30.20;38.40
25108;DHT22;13090;53.422;7.670;2022-08-11T18:06:46;30.20;38.20
25108;DHT22;13090;53.422;7.670;2022-08-11T18:11:50;30.20;38.20
25108;DHT22;13090;53.422;7.670;2022-08-11T18:17:14;30.20;38.20
25108;DHT22;13090;53.422;7.670;2022-08-11T18:22:20;30.10;38.30
25108;DHT22;13090;53.422;7.670;2022-08-11T18:27:27;30.10;38.50
25108;DHT22;13090;53.422;7.670;2022-08-11T18:32:35;30.00;38.70
25108;DHT22;13090;53.422;7.670;2022-08-11T18:37:52;29.90;39.10
25108;DHT22;13090;53.422;7.670;2022-08-11T18:42:59;29.80;38.90
25108;DHT22;13090;53.422;7.670;2022-08-11T18:48:11;29.60;39.30
25108;DHT22;13090;53.422;7.670;2022-08-11T18:53:15;29.50;39.70
25108;DHT22;13090;53.422;7.670;2022-08-11T18:58:22;29.30;39.60
25108;DHT22;13090;53.422;7.670;2022-08-11T19:03:30;29.10;40.30
25108;DHT22;13090;53.422;7.670;2022-08-11T19:08:52;28.90;40.30
25108;DHT22;13090;53.422;7.670;2022-08-11T19:13:56;28.70;40.70
25108;DHT22;13090;53.422;7.670;2022-08-11T19:19:01;28.50;39.80
25108;DHT22;13090;53.422;7.670;2022-08-11T19:24:06;28.30;40.70
25108;DHT22;13090;53.422;7.670;2022-08-11T19:29:12;28.20;41.30
25108;DHT22;13090;53.422;7.670;2022-08-11T19:34:38;27.90;41.30
25108;DHT22;13090;53.422;7.670;2022-08-11T19:39:41;27.70;41.80
25108;DHT22;13090;53.422;7.670;2022-08-11T19:44:45;27.60;41.90
25108;DHT22;13090;53.422;7.670;2022-08-11T19:49:51;27.40;42.30
25108;DHT22;13090;53.422;7.670;2022-08-11T19:54:55;27.20;43.50
25108;DHT22;13090;53.422;7.670;2022-08-11T19:59:59;27.10;42.80
25108;DHT22;13090;53.422;7.670;2022-08-11T20:05:05;26.90;43.10
25108;DHT22;13090;53.422;7.670;2022-08-11T20:10:10;26.70;43.40
25108;DHT22;13090;53.422;7.670;2022-08-11T20:15:17;26.60;43.70
25108;DHT22;13090;53.422;7.670;2022-08-11T20:20:25;26.40;44.00
25108;DHT22;13090;53.422;7.670;2022-08-11T20:25:30;26.30;44.40
25108;DHT22;13090;53.422;7.670;2022-08-11T20:30:43;26.10;44.50
25108;DHT22;13090;53.422;7.670;2022-08-11T20:36:01;26.00;45.30
25108;DHT22;13090;53.422;7.670;2022-08-11T20:41:04;25.90;45.10
25108;DHT22;13090;53.422;7.670;2022-08-11T20:46:14;25.70;45.10
25108;DHT22;13090;53.422;7.670;2022-08-11T20:51:22;25.60;45.60
25108;DHT22;13090;53.422;7.670;2022-08-11T20:56:34;25.50;45.70
25108;DHT22;13090;53.422;7.670;2022-08-11T21:01:39;25.40;46.40
25108;DHT22;13090;53.422;7.670;2022-08-11T21:06:46;25.30;46.10
25108;DHT22;13090;53.422;7.670;2022-08-11T21:11:52;25.20;46.30
25108;DHT22;13090;53.422;7.670;2022-08-11T21:16:59;25.10;46.40
25108;DHT22;13090;53.422;7.670;2022-08-11T21:22:26;25.00;46.60
25108;DHT22;13090;53.422;7.670;2022-08-11T21:27:32;24.90;47.00
25108;DHT22;13090;53.422;7.670;2022-08-11T21:32:36;24.90;47.00
25108;DHT22;13090;53.422;7.670;2022-08-11T21:37:40;24.80;47.30
25108;DHT22;13090;53.422;7.670;2022-08-11T21:42:46;24.70;48.40
25108;DHT22;13090;53.422;7.670;2022-08-11T21:47:50;24.60;48.10
25108;DHT22;13090;53.422;7.670;2022-08-11T21:53:04;24.50;48.20
25108;DHT22;13090;53.422;7.670;2022-08-11T21:58:07;24.40;48.70
25108;DHT22;13090;53.422;7.670;2022-08-11T22:03:10;24.30;48.90
25108;DHT22;13090;53.422;7.670;2022-08-11T22:08:15;24.20;49.20
25108;DHT22;13090;53.422;7.670;2022-08-11T22:13:18;24.10;49.70
25108;DHT22;13090;53.422;7.670;2022-08-11T22:18:21;24.00;49.70
25108;DHT22;13090;53.422;7.670;2022-08-11T22:23:26;23.90;50.10
25108;DHT22;13090;53.422;7.670;2022-08-11T22:28:38;23.90;50.60
25108;DHT22;13090;53.422;7.670;2022-08-11T22:33:40;23.80;50.50
25108;DHT22;13090;53.422;7.670;2022-08-11T22:39:06;23.70;50.70
25108;DHT22;13090;53.422;7.670;2022-08-11T22:44:10;23.70;51.30
25108;DHT22;13090;53.422;7.670;2022-08-11T22:49:13;23.50;51.00
25108;DHT22;13090;53.422;7.670;2022-08-11T22:54:19;23.40;51.10
25108;DHT22;13090;53.422;7.670;2022-08-11T22:59:23;23.20;51.60
25108;DHT22;13090;53.422;7.670;2022-08-11T23:04:27;23.10;51.70
25108;DHT22;13090;53.422;7.670;2022-08-11T23:09:32;23.00;52.00
25108;DHT22;13090;53.422;7.670;2022-08-11T23:14:36;22.90;52.40
25108;DHT22;13090;53.422;7.670;2022-08-11T23:19:40;22.80;52.60
25108;DHT22;13090;53.422;7.670;2022-08-11T23:25:04;22.80;52.90
25108;DHT22;13090;53.422;7.670;2022-08-11T23:30:08;22.70;53.40
25108;DHT22;13090;53.422;7.670;2022-08-11T23:35:13;22.60;53.50
25108;DHT22;13090;53.422;7.670;2022-08-11T23:40:38;22.50;53.90
25108;DHT22;13090;53.422;7.670;2022-08-11T23:45:41;22.50;54.30
25108;DHT22;13090;53.422;7.670;2022-08-11T23:50:43;22.40;54.10
25108;DHT22;13090;53.422;7.670;2022-08-11T23:55:48;22.40;54.50
